Time;durP1;ratioP1;P1;durP2;ratioP2;P2;SDS_P1;SDS_P2;PMS_P1;PMS_P2;Temp;Humidity;BMP_temperature;BMP_pressure;BME280_temperature;BME280_humidity;BME280_pressure;Samples;Min_cycle;Max_cycle;Signal;HPM_P1;HPM_P2
2022/12/13 00:04:20;;;;;;;14.40;6.85;;;;;;;-149.40;100.00;158323.94;4402571;78;28506;-87
2022/12/13 00:10:21;;;;;;;11.70;6.22;;;;;;;3.95;82.20;98443.88;4359761;80;28519;-86
2022/12/13 00:16:24;;;;;;;12.23;6.03;;;;;;;4.22;80.72;98445.73;4340763;81;28544;-82
2022/12/13 00:22:25;;;;;;;11.63;6.28;;;;;;;3.80;78.87;98448.07;4363974;80;28583;-83
2022/12/13 00:29:04;;;;;;;11.57;6.33;;;;;;;-149.40;100.00;119126.13;4371628;80;28516;-83
2022/12/13 00:35:06;;;;;;;12.60;6.55;;;;;;;3.92;78.22;98450.14;4342531;81;28596;-84
2022/12/13 00:41:15;;;;;;;11.22;5.97;;;;;;;3.73;77.26;98452.55;4439486;80;28521;-84
2022/12/13 00:47:19;;;;;;;11.10;5.55;;;;;;;3.58;76.84;98466.80;4366937;81;28494;-82
2022/12/13 00:53:20;;;;;;;12.65;5.33;;;;;;;3.55;76.41;98476.52;4382763;80;28583;-81
2022/12/13 00:59:21;;;;;;;10.95;5.05;;;;;;;3.60;75.44;98475.42;4378363;80;28564;-82
2022/12/13 01:05:24;;;;;;;11.73;6.05;;;;;;;3.67;74.45;98487.90;4383112;80;28453;-82
2022/12/13 01:11:25;;;;;;;10.05;5.12;;;;;;;3.53;74.12;98484.37;4380768;80;28571;-82
2022/12/13 01:17:26;;;;;;;10.40;5.35;;;;;;;3.67;75.32;98491.39;4349302;80;28574;-83
2022/12/13 01:23:28;;;;;;;12.40;6.35;;;;;;;3.54;76.84;98489.99;4353413;80;28488;-83
2022/12/13 01:29:29;;;;;;;9.78;5.83;;;;;;;3.71;76.61;98490.48;4357833;80;28525;-83
2022/12/13 01:35:33;;;;;;;11.75;7.00;;;;;;;3.62;76.83;98490.66;4373506;80;28533;-83
2022/12/13 01:41:35;;;;;;;14.65;7.60;;;;;;;3.47;75.49;98488.14;4374966;80;28626;-84
2022/12/13 01:47:39;;;;;;;18.15;9.93;;;;;;;3.53;73.98;98489.19;4358503;80;28540;-81
2022/12/13 01:53:42;;;;;;;20.00;10.63;;;;;;;3.51;75.34;98491.73;4341694;80;28568;-83
2022/12/13 01:59:44;;;;;;;18.52;9.10;;;;;;;3.65;75.21;98496.59;4358122;80;28511;-85
2022/12/13 02:06:03;;;;;;;16.25;8.88;;;;;;;3.58;73.46;98503.22;4349472;80;43888;-83
2022/12/13 02:12:04;;;;;;;16.65;8.68;;;;;;;3.99;74.04;98505.47;4342145;80;28487;-83
2022/12/13 02:18:12;;;;;;;14.85;7.90;;;;;;;3.75;76.52;98510.33;4349624;80;28548;-82
2022/12/13 02:24:29;;;;;;;14.35;8.40;;;;;;;3.46;76.12;98517.08;4330702;80;28520;-83
2022/12/13 02:30:41;;;;;;;15.23;8.55;;;;;;;3.19;76.68;98523.57;4293164;81;28545;-86
2022/12/13 02:37:07;;;;;;;13.83;7.70;;;;;;;3.41;74.27;98520.81;4293692;81;28560;-83
2022/12/13 02:43:18;;;;;;;14.63;8.08;;;;;;;3.48;75.10;98523.50;4308906;80;28562;-83
2022/12/13 02:49:22;;;;;;;14.90;8.15;;;;;;;3.38;79.58;98527.86;4328459;81;28514;-81
2022/12/13 02:55:24;;;;;;;16.55;9.05;;;;;;;3.39;75.73;98522.05;4294325;81;43889;-81
2022/12/13 03:01:48;;;;;;;17.05;8.73;;;;;;;3.11;74.34;98525.58;4327739;81;43971;-81
2022/12/13 03:07:53;;;;;;;17.03;9.80;;;;;;;3.32;73.96;98529.47;4291948;81;28457;-83
2022/12/13 03:13:59;;;;;;;17.30;9.17;;;;;;;3.19;73.45;98538.70;4302742;80;28487;-83
2022/12/13 03:20:01;;;;;;;16.82;8.25;;;;;;;3.16;73.15;98529.78;4332264;81;28495;-83
2022/12/13 03:26:11;;;;;;;17.02;8.58;;;;;;;3.34;72.13;98529.29;4337952;80;43973;-83
2022/12/13 03:32:12;;;;;;;14.83;8.30;;;;;;;3.14;71.60;98538.45;4340723;79;43952;-84
2022/12/13 03:38:15;;;;;;;13.93;8.20;;;;;;;3.18;71.41;98545.04;4365455;80;28784;-85
2022/12/13 03:44:16;;;;;;;18.65;9.80;;;;;;;3.25;72.48;98551.72;4348281;81;43946;-85
2022/12/13 03:50:18;;;;;;;16.10;8.93;;;;;;;2.82;73.21;98557.95;4358147;80;43954;-82
2022/12/13 03:56:19;;;;;;;18.17;9.73;;;;;;;2.88;73.68;98558.00;4373516;81;43949;-82
2022/12/13 04:02:20;;;;;;;19.92;10.60;;;;;;;3.20;72.14;98550.45;4374507;80;44450;-82
2022/12/13 04:08:21;;;;;;;18.32;10.45;;;;;;;2.75;73.48;98560.56;4380108;80;44486;-82
2022/12/13 04:14:23;;;;;;;17.87;9.80;;;;;;;3.17;74.29;98576.08;4345714;80;28566;-81
2022/12/13 04:20:24;;;;;;;17.92;9.98;;;;;;;2.75;75.73;98562.69;4386396;80;44242;-80
2022/12/13 04:26:25;;;;;;;18.20;10.20;;;;;;;2.94;76.22;98575.00;4360341;80;44459;-81
2022/12/13 04:32:26;;;;;;;20.00;9.85;;;;;;;2.78;76.62;98574.77;4358654;81;43942;-82
2022/12/13 04:38:28;;;;;;;18.60;8.68;;;;;;;2.96;78.31;98582.25;4320653;82;44110;-81
2022/12/13 04:44:31;;;;;;;17.80;8.58;;;;;;;3.27;78.83;98586.35;4321225;81;43886;-86
2022/12/13 04:50:32;;;;;;;16.23;8.50;;;;;;;3.04;76.54;98584.77;4357199;81;28552;-85
2022/12/13 04:56:34;;;;;;;16.70;8.60;;;;;;;2.96;78.38;98587.56;4301456;81;43947;-85
2022/12/13 05:02:35;;;;;;;13.60;6.87;;;;;;;2.92;80.41;98579.69;4328957;82;43934;-84
2022/12/13 05:08:37;;;;;;;13.83;7.70;;;;;;;3.08;79.25;98589.20;4356052;82;28564;-80
2022/12/13 05:14:38;;;;;;;15.80;8.55;;;;;;;3.17;77.44;98586.71;4326401;81;43999;-81
2022/12/13 05:20:39;;;;;;;15.38;8.23;;;;;;;3.06;75.42;98588.58;4302673;82;43901;-82
2022/12/13 05:26:40;;;;;;;17.05;8.63;;;;;;;2.96;72.67;98590.22;4344190;82;43926;-81
2022/12/13 05:32:41;;;;;;;14.78;7.12;;;;;;;3.20;71.17;98600.13;4374131;81;28502;-81
2022/12/13 05:38:42;;;;;;;15.08;7.70;;;;;;;2.95;70.79;98597.87;4373198;80;43931;-82
2022/12/13 05:44:43;;;;;;;12.78;6.95;;;;;;;2.93;70.34;98598.58;4353560;81;43934;-82
2022/12/13 05:50:44;;;;;;;14.15;7.00;;;;;;;3.06;69.99;98595.22;4366495;80;43954;-82
2022/12/13 05:56:45;;;;;;;13.32;7.08;;;;;;;2.92;69.31;98601.77;4352681;80;28525;-84
2022/12/13 06:02:47;;;;;;;14.18;7.03;;;;;;;3.01;68.90;98607.75;4362179;80;43958;-83
2022/12/13 06:08:48;;;;;;;12.43;6.45;;;;;;;3.08;68.43;98612.30;4366425;81;43267;-82
2022/12/13 06:14:49;;;;;;;12.90;5.92;;;;;;;3.08;67.79;98613.63;4367248;80;28544;-83
2022/12/13 06:20:58;;;;;;;13.72;6.40;;;;;;;2.84;67.64;98609.02;4373461;80;43949;-81
2022/12/13 06:26:59;;;;;;;15.00;6.67;;;;;;;2.89;67.49;98622.56;4383808;80;43899;-81
2022/12/13 06:33:00;;;;;;;11.83;6.03;;;;;;;3.11;67.25;98638.47;4355302;81;28482;-83
2022/12/13 06:39:05;;;;;;;14.25;6.83;;;;;;;3.24;66.80;98643.87;4352299;82;44024;-85
2022/12/13 06:45:07;;;;;;;13.23;6.40;;;;;;;3.38;66.40;98642.14;4348486;81;28507;-85
2022/12/13 06:51:08;;;;;;;14.70;6.80;;;;;;;3.48;66.66;98651.08;4349410;82;43945;-82
2022/12/13 06:57:10;;;;;;;13.13;6.15;;;;;;;3.33;66.31;98658.66;4351129;82;43583;-89
2022/12/13 07:03:12;;;;;;;13.38;6.65;;;;;;;3.49;66.31;98664.72;4322928;82;28552;-87
2022/12/13 07:09:13;;;;;;;12.37;6.30;;;;;;;3.57;66.05;98667.20;4341967;82;43244;-88
2022/12/13 07:15:14;;;;;;;16.57;7.53;;;;;;;3.55;66.07;98667.91;4332928;82;28569;-89
2022/12/13 07:21:15;;;;;;;14.83;6.22;;;;;;;3.61;65.61;98688.91;4335187;82;28560;-88
2022/12/13 07:27:16;;;;;;;15.03;6.50;;;;;;;3.59;65.73;98697.59;4331999;81;28520;-88
2022/12/13 07:33:17;;;;;;;13.55;6.85;;;;;;;3.74;65.60;98690.84;4365902;79;28626;-89
2022/12/13 07:39:19;;;;;;;11.35;5.40;;;;;;;3.78;65.91;98701.38;4358099;80;43271;-88
2022/12/13 07:45:21;;;;;;;13.50;6.83;;;;;;;3.89;65.46;98702.16;4358991;81;28603;-89
2022/12/13 07:51:23;;;;;;;12.10;6.65;;;;;;;4.04;64.88;98701.23;4356595;80;43234;-89
2022/12/13 07:57:24;;;;;;;11.22;5.87;;;;;;;4.09;64.08;98712.09;4359061;80;28464;-89
2022/12/13 08:03:26;;;;;;;13.88;6.30;;;;;;;4.03;64.26;98704.39;4377535;80;28504;-89
2022/12/13 08:09:27;;;;;;;14.90;6.42;;;;;;;4.10;62.94;98707.61;4345992;80;43954;-89
2022/12/13 08:15:28;;;;;;;11.78;5.92;;;;;;;4.02;62.72;98713.39;4370427;80;43236;-89
2022/12/13 08:28:02;;;;;;;10.45;5.45;;;;;;;4.26;62.15;98713.91;4373591;80;28551;-88
2022/12/13 08:34:04;;;;;;;11.68;6.08;;;;;;;4.62;60.62;98714.66;4377689;80;28536;-87
2022/12/13 08:40:06;;;;;;;10.58;5.85;;;;;;;4.48;60.32;98723.14;4377089;80;28591;-88
2022/12/13 08:46:07;;;;;;;10.50;6.17;;;;;;;4.85;60.26;98733.50;4373585;80;28583;-81
2022/12/13 08:52:08;;;;;;;13.05;5.65;;;;;;;4.85;60.48;98729.50;4375194;80;28493;-81
2022/12/13 08:58:09;;;;;;;11.53;6.10;;;;;;;5.00;60.31;98731.47;4373551;80;28520;-81
2022/12/13 09:04:11;;;;;;;12.93;6.65;;;;;;;4.49;60.30;98730.60;4368244;80;28799;-80
2022/12/13 09:10:12;;;;;;;12.30;5.97;;;;;;;4.81;59.42;98730.91;4369414;80;28497;-81
2022/12/13 09:16:18;;;;;;;13.88;6.70;;;;;;;4.98;59.83;98722.86;4350945;80;28540;-81
2022/12/13 09:22:20;;;;;;;14.65;7.70;;;;;;;5.42;60.44;98718.48;4391873;80;28470;-82
2022/12/13 09:28:22;;;;;;;14.93;7.47;;;;;;;5.25;59.28;98725.54;4339575;80;28575;-80
2022/12/13 09:34:23;;;;;;;14.28;7.58;;;;;;;5.70;57.75;98720.92;4358751;80;28549;-81
2022/12/13 09:40:26;;;;;;;15.28;7.53;;;;;;;5.30;57.50;98726.27;4371649;80;28543;-82
2022/12/13 09:46:30;;;;;;;14.85;6.85;;;;;;;5.38;58.34;98722.06;4381243;80;28551;-82
2022/12/13 09:52:37;;;;;;;13.53;7.53;;;;;;;5.05;57.07;98722.86;4378368;80;28575;-81
2022/12/13 09:58:39;;;;;;;15.93;8.30;;;;;;;5.11;57.15;98733.22;4376430;80;28608;-82
2022/12/13 10:04:40;;;;;;;11.00;5.40;;;;;;;5.13;57.69;98728.00;4350662;81;28536;-82
2022/12/13 10:10:42;;;;;;;10.58;5.50;;;;;;;4.66;56.42;98733.73;4390306;80;28528;-82
2022/12/13 10:16:50;;;;;;;11.10;5.67;;;;;;;4.20;57.98;98738.67;4361231;80;28906;-81
2022/12/13 10:22:51;;;;;;;10.95;5.90;;;;;;;4.34;57.37;98732.91;4359808;80;28534;-82
2022/12/13 10:29:00;;;;;;;11.28;6.33;;;;;;;4.67;56.41;98727.38;4388728;80;28576;-82
2022/12/13 10:35:24;;;;;;;13.28;6.97;;;;;;;4.68;57.75;98723.19;4358432;80;28567;-82
2022/12/13 10:41:36;;;;;;;17.52;8.38;;;;;;;4.99;57.80;98718.33;4374849;81;28505;-80
2022/12/13 10:47:41;;;;;;;16.48;7.85;;;;;;;5.10;57.41;98708.44;4376254;81;28563;-81
2022/12/13 10:53:48;;;;;;;12.78;7.12;;;;;;;5.33;57.36;98709.88;4376919;81;28567;-81
2022/12/13 10:59:50;;;;;;;13.50;7.05;;;;;;;5.94;56.13;98716.48;4353643;80;28531;-80
2022/12/13 11:06:03;;;;;;;13.00;6.50;;;;;;;5.51;55.36;98717.25;4365820;80;28582;-81
2022/12/13 11:12:11;;;;;;;13.05;6.25;;;;;;;5.32;55.01;98710.91;4360201;81;28586;-81
2022/12/13 11:18:21;;;;;;;11.18;6.15;;;;;;;4.48;55.74;98719.64;4354939;80;28474;-81
2022/12/13 11:24:29;;;;;;;12.10;6.25;;;;;;;4.60;56.16;98719.38;4358993;81;28518;-80
2022/12/13 11:30:43;;;;;;;14.03;7.12;;;;;;;4.24;55.87;98713.30;4367980;81;28637;-80
2022/12/13 11:36:51;;;;;;;17.23;6.40;;;;;;;4.76;54.56;98704.06;4344383;80;28504;-81
2022/12/13 11:43:01;;;;;;;12.58;6.30;;;;;;;5.33;54.34;98694.38;4351511;81;28492;-81
2022/12/13 11:49:06;;;;;;;12.18;6.65;;;;;;;5.47;54.05;98697.37;4340861;80;28598;-80
2022/12/13 11:55:22;;;;;;;12.93;6.17;;;;;;;5.62;54.06;98693.66;4342419;80;28540;-80
2022/12/13 12:01:36;;;;;;;11.93;6.60;;;;;;;4.77;54.61;98707.04;4367786;80;28559;-80
2022/12/13 12:07:47;;;;;;;13.90;7.78;;;;;;;4.73;55.04;98706.09;4343599;80;28559;-81
2022/12/13 12:13:51;;;;;;;14.95;7.60;;;;;;;4.74;55.56;98706.42;4351131;80;28522;-81
2022/12/13 12:19:55;;;;;;;11.77;6.53;;;;;;;4.52;55.87;98707.56;4378280;80;34805;-82
2022/12/13 12:26:00;;;;;;;12.80;7.03;;;;;;;4.77;55.41;98710.50;4341856;81;28564;-80
2022/12/13 12:32:30;;;;;;;12.45;6.15;;;;;;;5.32;54.56;98709.58;4345865;80;28573;-80
2022/12/13 12:38:43;;;;;;;14.15;6.65;;;;;;;5.27;54.72;98704.85;4328847;82;28545;-81
2022/12/13 12:44:51;;;;;;;10.93;6.00;;;;;;;5.05;55.19;98709.54;4346555;82;28505;-81
2022/12/13 12:51:11;;;;;;;11.80;6.35;;;;;;;5.21;54.21;98715.52;4342990;82;28517;-81
2022/12/13 12:57:25;;;;;;;12.73;6.53;;;;;;;5.30;53.85;98719.59;4345174;81;28520;-81
2022/12/13 13:03:28;;;;;;;11.35;6.47;;;;;;;5.09;54.76;98720.09;4334327;82;28486;-80
2022/12/13 13:09:30;;;;;;;13.35;6.97;;;;;;;4.71;55.77;98725.45;4349995;81;28497;-80
2022/12/13 13:15:35;;;;;;;11.20;6.22;;;;;;;5.17;55.37;98721.77;4350146;82;28533;-80
2022/12/13 13:21:54;;;;;;;15.00;7.17;;;;;;;5.15;54.99;98723.78;4337333;81;28513;-80
2022/12/13 13:28:05;;;;;;;13.08;7.00;;;;;;;5.07;55.32;98722.67;4319933;80;28596;-80
2022/12/13 13:34:24;;;;;;;13.80;7.25;;;;;;;5.12;55.65;98722.88;4417730;80;28597;-80
2022/12/13 13:40:32;;;;;;;14.35;7.40;;;;;;;4.96;55.90;98735.56;4339197;81;28547;-79
2022/12/13 13:46:37;;;;;;;14.85;7.95;;;;;;;4.87;57.09;98727.45;4349089;80;28516;-79
2022/12/13 13:53:09;;;;;;;13.00;7.67;;;;;;;4.87;57.59;98724.26;4393394;78;28609;-80
2022/12/13 13:59:37;;;;;;;14.10;7.45;;;;;;;4.87;57.52;98734.11;4339881;80;28534;-79
2022/12/13 14:05:59;;;;;;;14.55;8.10;;;;;;;4.76;57.79;98740.83;4412906;80;28524;-80
2022/12/13 14:12:28;;;;;;;15.68;8.00;;;;;;;4.69;57.39;98738.15;4294626;80;28509;-82
2022/12/13 14:19:09;;;;;;;17.55;7.95;;;;;;;4.66;56.71;98745.22;4419647;78;28555;-81
2022/12/13 14:25:39;;;;;;;16.50;7.92;;;;;;;4.64;57.21;98756.58;4301881;81;28508;-80
2022/12/13 14:31:47;;;;;;;14.60;7.95;;;;;;;4.35;57.53;98755.84;4343827;81;28498;-81
2022/12/13 14:38:00;;;;;;;14.38;8.18;;;;;;;4.65;57.07;98766.21;4414378;78;28552;-80
2022/12/13 14:44:23;;;;;;;15.90;7.80;;;;;;;4.39;56.28;98767.73;4337569;82;28556;-81
2022/12/13 14:50:26;;;;;;;14.40;7.47;;;;;;;3.30;58.12;98766.67;4363057;80;28512;-81
2022/12/13 14:56:28;;;;;;;13.60;7.12;;;;;;;4.15;57.53;98765.03;4381521;79;28520;-81
2022/12/13 15:02:31;;;;;;;18.45;8.10;;;;;;;4.12;58.27;98764.10;4337906;80;28516;-81
2022/12/13 15:08:33;;;;;;;15.30;7.75;;;;;;;3.98;59.38;98767.19;4432828;79;28506;-81
2022/12/13 15:14:36;;;;;;;17.00;8.20;;;;;;;3.73;59.89;98775.61;4400701;80;28945;-80
2022/12/13 15:20:39;;;;;;;18.98;9.08;;;;;;;3.53;60.93;98772.28;4419521;78;28533;-81
2022/12/13 15:26:44;;;;;;;18.82;9.05;;;;;;;4.01;59.51;98774.77;4334755;81;28530;-81
2022/12/13 15:33:07;;;;;;;20.30;9.40;;;;;;;3.75;59.79;98777.56;4344033;81;29175;-81
2022/12/13 15:39:10;;;;;;;20.20;8.73;;;;;;;3.61;59.88;98784.13;4347563;80;28511;-80
2022/12/13 15:45:23;;;;;;;17.48;9.03;;;;;;;3.45;60.01;98795.01;4349499;80;28553;-80
2022/12/13 15:51:25;;;;;;;21.45;9.68;;;;;;;3.59;59.74;98793.30;4369454;81;44435;-81
2022/12/13 15:57:28;;;;;;;18.35;10.00;;;;;;;3.67;59.90;98794.49;4364774;80;44478;-80
2022/12/13 16:03:33;;;;;;;23.32;10.40;;;;;;;3.48;60.93;98791.95;4358139;81;28509;-81
2022/12/13 16:09:37;;;;;;;23.33;10.77;;;;;;;3.77;60.45;98799.47;4349442;81;28531;-80
2022/12/13 16:15:49;;;;;;;18.57;9.55;;;;;;;3.71;59.88;98801.58;4347141;80;28527;-80
2022/12/13 16:21:50;;;;;;;19.70;9.63;;;;;;;3.52;60.10;98797.23;4333508;80;28540;-82
2022/12/13 16:27:51;;;;;;;19.90;9.50;;;;;;;3.56;59.03;98801.14;4370139;81;28544;-80
2022/12/13 16:33:53;;;;;;;17.05;8.00;;;;;;;3.55;55.16;98796.84;4301376;81;43968;-80
2022/12/13 16:39:54;;;;;;;15.65;7.15;;;;;;;3.59;54.49;98800.78;4345427;81;28532;-80
2022/12/13 16:45:55;;;;;;;15.98;7.42;;;;;;;3.44;55.15;98807.49;4312660;81;28554;-80
2022/12/13 16:51:57;;;;;;;19.75;9.18;;;;;;;3.01;55.24;98809.61;4286054;81;43950;-80
2022/12/13 16:58:04;;;;;;;18.15;8.40;;;;;;;3.13;55.21;98809.11;4271962;81;28464;-81
2022/12/13 17:04:11;;;;;;;20.68;8.73;;;;;;;3.19;55.89;98813.16;4280680;81;28577;-81
2022/12/13 17:10:12;;;;;;;16.67;7.73;;;;;;;2.59;56.34;98817.27;4292898;81;28592;-81
2022/12/13 17:16:13;;;;;;;22.17;8.80;;;;;;;2.31;56.77;98822.41;4288098;81;44037;-80
2022/12/13 17:22:14;;;;;;;19.67;8.95;;;;;;;2.86;56.53;98823.41;4287307;81;28647;-75
2022/12/13 17:28:15;;;;;;;19.27;9.05;;;;;;;3.02;55.64;98829.84;4288363;81;43940;-77
2022/12/13 17:34:17;;;;;;;18.10;8.63;;;;;;;3.40;55.10;98830.65;4309145;80;28541;-75
2022/12/13 17:40:18;;;;;;;18.20;8.83;;;;;;;3.12;57.47;98838.82;4370220;80;28529;-76
2022/12/13 17:46:19;;;;;;;19.35;8.68;;;;;;;3.17;57.39;98843.58;4373045;80;44052;-75
2022/12/13 17:52:21;;;;;;;16.25;8.25;;;;;;;3.18;57.67;98843.92;4372334;80;43922;-75
2022/12/13 17:58:22;;;;;;;15.78;8.28;;;;;;;2.83;58.28;98849.02;4367435;80;28569;-75
2022/12/13 18:04:24;;;;;;;15.58;8.03;;;;;;;3.09;57.88;98843.19;4361669;80;43965;-75
2022/12/13 18:10:27;;;;;;;18.25;8.15;;;;;;;2.98;58.70;98860.45;4364029;80;28511;-75
2022/12/13 18:16:28;;;;;;;18.40;8.53;;;;;;;2.81;58.09;98855.83;4368818;80;43966;-76
2022/12/13 18:22:31;;;;;;;21.65;9.33;;;;;;;2.86;58.05;98862.75;4371499;80;28555;-76
2022/12/13 18:28:32;;;;;;;19.10;9.43;;;;;;;2.76;58.15;98867.03;4357309;80;28535;-75
2022/12/13 18:34:34;;;;;;;22.00;10.70;;;;;;;2.76;57.83;98874.16;4346921;79;44517;-75
2022/12/13 18:40:36;;;;;;;24.52;11.35;;;;;;;2.71;58.68;98879.18;4358938;80;43734;-75
2022/12/13 18:46:37;;;;;;;25.32;10.98;;;;;;;3.04;57.70;98870.84;4351373;80;43236;-75
2022/12/13 18:52:38;;;;;;;23.22;9.53;;;;;;;2.63;58.64;98877.45;4358958;81;44055;-75
2022/12/13 18:58:40;;;;;;;15.40;7.95;;;;;;;2.51;59.88;98889.86;4346593;80;43987;-75
2022/12/13 19:04:43;;;;;;;12.15;6.12;;;;;;;2.41;58.47;98872.05;4360568;80;43310;-74
2022/12/13 19:10:48;;;;;;;12.18;5.12;;;;;;;3.01;56.64;98873.84;4370598;80;43283;-75
2022/12/13 19:16:53;;;;;;;10.88;5.67;;;;;;;2.82;55.65;98868.61;4358906;80;43252;-75
2022/12/13 19:22:55;;;;;;;11.88;6.42;;;;;;;2.70;56.17;98875.72;4358402;80;28497;-77
2022/12/13 19:28:58;;;;;;;11.60;5.75;;;;;;;2.72;56.04;98865.73;4364225;80;43299;-75
2022/12/13 19:34:59;;;;;;;12.05;6.20;;;;;;;2.28;56.52;98867.88;4336704;80;43311;-75
2022/12/13 19:41:16;;;;;;;10.35;5.17;;;;;;;2.00;57.10;98871.12;4344190;80;43283;-77
2022/12/13 19:47:24;;;;;;;10.60;5.12;;;;;;;1.65;57.52;98868.42;4347725;80;43307;-76
2022/12/13 19:53:25;;;;;;;10.32;5.12;;;;;;;1.60;56.73;98872.09;4350276;80;43232;-75
2022/12/13 19:59:28;;;;;;;9.03;4.50;;;;;;;1.13;56.72;98875.71;4348548;80;42750;-75
2022/12/13 20:05:30;;;;;;;11.85;4.97;;;;;;;1.03;57.53;98877.23;4349025;80;43294;-76
2022/12/13 20:11:33;;;;;;;12.78;5.90;;;;;;;1.47;57.31;98873.19;4358868;80;43603;-77
2022/12/13 20:17:35;;;;;;;12.50;5.90;;;;;;;1.31;56.98;98872.79;4336551;80;43575;-76
2022/12/13 20:23:39;;;;;;;14.15;5.85;;;;;;;1.53;58.09;98871.16;4332107;81;44086;-76
2022/12/13 20:29:42;;;;;;;11.05;5.78;;;;;;;1.38;58.87;98875.88;4346400;80;43288;-76
2022/12/13 20:35:46;;;;;;;9.95;5.25;;;;;;;1.52;59.66;98869.52;4444412;78;43292;-77
2022/12/13 20:41:48;;;;;;;10.82;4.97;;;;;;;1.32;60.81;98857.22;4445437;78;43260;-75
2022/12/13 20:47:54;;;;;;;13.60;5.65;;;;;;;1.27;61.41;98860.39;4465540;78;43254;-77
2022/12/13 20:53:56;;;;;;;10.70;5.28;;;;;;;1.34;61.26;98872.43;4449293;78;43255;-76
2022/12/13 20:59:57;;;;;;;9.38;4.95;;;;;;;1.01;62.95;98871.30;4441660;78;42778;-78
2022/12/13 21:06:03;;;;;;;11.28;5.42;;;;;;;1.13;62.21;98865.92;4434714;78;43231;-89
2022/12/13 21:12:04;;;;;;;14.60;6.17;;;;;;;1.01;62.03;98873.94;4357966;81;28516;-88
2022/12/13 21:18:08;;;;;;;19.77;10.15;;;;;;;1.01;61.80;98873.94;4382366;80;44489;-83
2022/12/13 21:24:12;;;;;;;20.97;9.85;;;;;;;0.97;62.25;98876.10;4368008;81;44191;-85
2022/12/13 21:30:22;;;;;;;24.70;12.65;;;;;;;1.01;61.37;98877.91;4412693;79;43783;-82
2022/12/13 21:36:42;;;;;;;21.07;11.20;;;;;;;1.02;60.99;98874.27;4028781;86;44427;-79
2022/12/13 21:42:43;;;;;;;34.27;14.65;;;;;;;0.54;61.79;98865.36;4189582;81;44095;-81
2022/12/13 21:48:46;;;;;;;39.65;17.98;;;;;;;0.30;62.87;98870.20;4351924;81;44426;-80
2022/12/13 21:54:47;;;;;;;35.05;16.70;;;;;;;-0.12;62.86;98880.02;4334517;81;44271;-79
2022/12/13 22:00:48;;;;;;;35.70;16.40;;;;;;;-0.19;63.05;98877.22;4349978;81;44495;-78
2022/12/13 22:06:52;;;;;;;38.10;17.05;;;;;;;-0.36;62.54;98885.64;4322409;81;44460;-80
2022/12/13 22:12:56;;;;;;;50.33;21.42;;;;;;;-0.58;63.11;98881.80;4310697;81;28505;-80
2022/12/13 22:18:57;;;;;;;51.23;23.35;;;;;;;-1.02;64.54;98892.08;4373385;81;44009;-80
2022/12/13 22:24:59;;;;;;;47.83;21.52;;;;;;;-0.64;63.80;98875.84;4315328;81;44225;-80
2022/12/13 22:31:00;;;;;;;50.67;22.15;;;;;;;-0.79;62.50;98874.33;4371513;81;44480;-85
2022/12/13 22:37:02;;;;;;;64.03;26.68;;;;;;;-0.79;62.37;98867.72;4374362;80;43260;-85
2022/12/13 22:43:03;;;;;;;66.47;26.27;;;;;;;-0.38;61.93;98873.58;4374343;81;43071;-85
2022/12/13 22:49:04;;;;;;;61.85;24.15;;;;;;;-0.25;61.75;98877.06;4373523;81;43776;-84
2022/12/13 22:55:06;;;;;;;56.60;24.57;;;;;;;-0.77;62.46;98873.69;4361697;81;44115;-80
2022/12/13 23:01:11;;;;;;;60.73;23.57;;;;;;;-0.69;61.30;98875.00;4344871;81;44314;-81
2022/12/13 23:07:14;;;;;;;56.13;24.30;;;;;;;-1.02;61.78;98873.13;4297778;81;44117;-82
2022/12/13 23:13:15;;;;;;;59.25;23.65;;;;;;;-1.31;61.69;98866.90;4316406;81;44093;-82
2022/12/13 23:19:18;;;;;;;55.25;23.38;;;;;;;-1.52;62.35;98862.03;4328524;81;44088;-81
2022/12/13 23:25:19;;;;;;;50.88;21.85;;;;;;;-1.35;62.04;98861.62;4337040;81;44518;-81
2022/12/13 23:31:21;;;;;;;53.92;23.20;;;;;;;-1.62;61.82;98851.59;4351637;81;44165;-81
2022/12/13 23:37:22;;;;;;;52.17;22.42;;;;;;;-1.96;62.01;98853.23;4326414;81;44671;-81
2022/12/13 23:43:24;;;;;;;50.43;21.93;;;;;;;-1.89;62.52;98848.16;4352237;81;44504;-81
2022/12/13 23:49:25;;;;;;;49.18;20.15;;;;;;;-1.73;62.61;98841.65;4340322;81;43894;-81
2022/12/13 23:55:26;;;;;;;52.43;21.97;;;;;;;-1.98;62.17;98844.63;4352608;81;44101;-80
